Terminal Aerodrome Forecast
Issued by NWS Memphis, TN

Home | Current Version | Previous Version | Text Only | Print | Product List | Glossary On
Versions: 1 2 3 4 5 6 7 8 9 10 11 12 13 14 15 16 17 18 19 20 21 22 23 24 25 26 27 28 29 30 31
000
FTUS44 KMEG 070525
TAFJBR
TAF
KJBR 070525Z 0706/0806 19008KT P6SM SCT100
     FM071300 23013KT P6SM OVC100
     FM071800 22015KT P6SM OVC050
     FM080000 23010KT P6SM VCTS OVC050CB
      TEMPO 0800/0804 3SM TSRA OVC025CB=

USA.gov is the U.S. government's official web portal to all federal, state and local government web resources and services.